sensor_id;sensor_type;location;lat;lon;timestamp;temperature;humidity
3690;DHT22;1861;50.240;8.596;2023-05-16T00:01:35;15.30;99.90
3690;DHT22;1861;50.240;8.596;2023-05-16T00:04:04;15.30;99.90
3690;DHT22;1861;50.240;8.596;2023-05-16T00:06:34;15.30;99.90
3690;DHT22;1861;50.240;8.596;2023-05-16T00:09:03;15.20;99.90
3690;DHT22;1861;50.240;8.596;2023-05-16T00:11:31;15.20;99.90
3690;DHT22;1861;50.240;8.596;2023-05-16T00:13:59;15.20;99.90
3690;DHT22;1861;50.240;8.596;2023-05-16T00:16:28;15.30;99.90
3690;DHT22;1861;50.240;8.596;2023-05-16T00:18:56;15.30;99.90
3690;DHT22;1861;50.240;8.596;2023-05-16T00:21:25;15.20;99.90
3690;DHT22;1861;50.240;8.596;2023-05-16T00:23:55;15.20;99.90
3690;DHT22;1861;50.240;8.596;2023-05-16T00:26:23;15.20;99.90
3690;DHT22;1861;50.240;8.596;2023-05-16T00:28:52;15.20;99.90
3690;DHT22;1861;50.240;8.596;2023-05-16T00:31:20;15.20;99.90
3690;DHT22;1861;50.240;8.596;2023-05-16T00:33:50;15.30;99.90
3690;DHT22;1861;50.240;8.596;2023-05-16T00:36:18;15.20;99.90
3690;DHT22;1861;50.240;8.596;2023-05-16T00:38:49;15.20;99.90
3690;DHT22;1861;50.240;8.596;2023-05-16T00:41:19;15.30;99.90
3690;DHT22;1861;50.240;8.596;2023-05-16T00:43:47;15.20;99.90
3690;DHT22;1861;50.240;8.596;2023-05-16T00:46:15;15.20;99.90
3690;DHT22;1861;50.240;8.596;2023-05-16T00:48:44;15.20;99.90
3690;DHT22;1861;50.240;8.596;2023-05-16T00:51:12;15.20;99.90
3690;DHT22;1861;50.240;8.596;2023-05-16T00:53:40;15.20;99.90
3690;DHT22;1861;50.240;8.596;2023-05-16T00:56:19;15.20;99.90
3690;DHT22;1861;50.240;8.596;2023-05-16T00:58:48;15.20;99.90
3690;DHT22;1861;50.240;8.596;2023-05-16T01:01:17;15.10;99.90
3690;DHT22;1861;50.240;8.596;2023-05-16T01:03:47;15.10;99.90
3690;DHT22;1861;50.240;8.596;2023-05-16T01:06:16;15.10;99.90
3690;DHT22;1861;50.240;8.596;2023-05-16T01:08:44;15.10;99.90
3690;DHT22;1861;50.240;8.596;2023-05-16T01:11:21;15.10;99.90
3690;DHT22;1861;50.240;8.596;2023-05-16T01:13:57;15.00;99.90
3690;DHT22;1861;50.240;8.596;2023-05-16T01:16:32;15.00;99.90
3690;DHT22;1861;50.240;8.596;2023-05-16T01:19:12;15.00;99.90
3690;DHT22;1861;50.240;8.596;2023-05-16T01:21:48;15.00;99.90
3690;DHT22;1861;50.240;8.596;2023-05-16T01:24:22;15.00;99.90
3690;DHT22;1861;50.240;8.596;2023-05-16T01:26:55;15.00;99.90
3690;DHT22;1861;50.240;8.596;2023-05-16T01:29:26;14.90;99.90
3690;DHT22;1861;50.240;8.596;2023-05-16T01:31:54;15.00;99.90
3690;DHT22;1861;50.240;8.596;2023-05-16T01:34:24;15.00;99.90
3690;DHT22;1861;50.240;8.596;2023-05-16T01:37:01;15.00;99.90
3690;DHT22;1861;50.240;8.596;2023-05-16T01:39:39;15.00;99.90
3690;DHT22;1861;50.240;8.596;2023-05-16T01:42:13;15.00;99.90
3690;DHT22;1861;50.240;8.596;2023-05-16T01:44:44;15.00;99.90
3690;DHT22;1861;50.240;8.596;2023-05-16T01:47:16;14.90;99.90
3690;DHT22;1861;50.240;8.596;2023-05-16T01:49:56;14.80;99.90
3690;DHT22;1861;50.240;8.596;2023-05-16T01:52:27;14.90;99.90
3690;DHT22;1861;50.240;8.596;2023-05-16T01:55:01;14.90;99.90
3690;DHT22;1861;50.240;8.596;2023-05-16T01:57:32;14.90;99.90
3690;DHT22;1861;50.240;8.596;2023-05-16T02:00:01;14.90;99.90
3690;DHT22;1861;50.240;8.596;2023-05-16T02:02:39;14.90;99.90
3690;DHT22;1861;50.240;8.596;2023-05-16T02:05:08;14.90;99.90
3690;DHT22;1861;50.240;8.596;2023-05-16T02:07:36;14.80;99.90
3690;DHT22;1861;50.240;8.596;2023-05-16T02:10:06;14.80;99.90
3690;DHT22;1861;50.240;8.596;2023-05-16T02:12:36;14.80;99.90
3690;DHT22;1861;50.240;8.596;2023-05-16T02:15:05;14.90;99.90
3690;DHT22;1861;50.240;8.596;2023-05-16T02:17:34;14.80;99.90
3690;DHT22;1861;50.240;8.596;2023-05-16T02:20:02;14.80;99.90
3690;DHT22;1861;50.240;8.596;2023-05-16T02:22:33;14.90;99.90
3690;DHT22;1861;50.240;8.596;2023-05-16T02:25:02;15.00;99.90
3690;DHT22;1861;50.240;8.596;2023-05-16T02:27:31;14.90;99.90
3690;DHT22;1861;50.240;8.596;2023-05-16T02:30:00;15.00;99.90
3690;DHT22;1861;50.240;8.596;2023-05-16T02:32:28;14.90;99.90
3690;DHT22;1861;50.240;8.596;2023-05-16T02:34:57;14.90;99.90
3690;DHT22;1861;50.240;8.596;2023-05-16T02:37:25;15.00;99.90
3690;DHT22;1861;50.240;8.596;2023-05-16T02:39:53;14.90;99.90
3690;DHT22;1861;50.240;8.596;2023-05-16T02:42:21;14.80;99.90
3690;DHT22;1861;50.240;8.596;2023-05-16T02:44:49;14.80;99.90
3690;DHT22;1861;50.240;8.596;2023-05-16T02:47:19;14.90;99.90
3690;DHT22;1861;50.240;8.596;2023-05-16T02:49:47;14.80;99.90
3690;DHT22;1861;50.240;8.596;2023-05-16T02:52:15;14.80;99.90
3690;DHT22;1861;50.240;8.596;2023-05-16T02:54:43;14.80;99.90
3690;DHT22;1861;50.240;8.596;2023-05-16T02:57:26;14.90;99.90
3690;DHT22;1861;50.240;8.596;2023-05-16T02:59:54;14.70;99.90
3690;DHT22;1861;50.240;8.596;2023-05-16T03:02:24;14.70;99.90
3690;DHT22;1861;50.240;8.596;2023-05-16T03:04:52;14.70;99.90
3690;DHT22;1861;50.240;8.596;2023-05-16T03:07:20;14.70;99.90
3690;DHT22;1861;50.240;8.596;2023-05-16T03:09:48;14.70;99.90
3690;DHT22;1861;50.240;8.596;2023-05-16T03:12:17;14.70;99.90
3690;DHT22;1861;50.240;8.596;2023-05-16T03:14:45;14.80;99.90
3690;DHT22;1861;50.240;8.596;2023-05-16T03:17:13;14.70;99.90
3690;DHT22;1861;50.240;8.596;2023-05-16T03:19:43;14.70;99.90
3690;DHT22;1861;50.240;8.596;2023-05-16T03:22:12;14.70;99.90
3690;DHT22;1861;50.240;8.596;2023-05-16T03:24:42;14.80;99.90
3690;DHT22;1861;50.240;8.596;2023-05-16T03:27:10;14.80;99.90
3690;DHT22;1861;50.240;8.596;2023-05-16T03:29:39;14.80;99.90
3690;DHT22;1861;50.240;8.596;2023-05-16T03:32:07;14.80;99.90
3690;DHT22;1861;50.240;8.596;2023-05-16T03:34:37;14.70;99.90
3690;DHT22;1861;50.240;8.596;2023-05-16T03:37:07;14.80;99.90
3690;DHT22;1861;50.240;8.596;2023-05-16T03:39:36;14.80;99.90
3690;DHT22;1861;50.240;8.596;2023-05-16T03:42:05;14.90;99.90
3690;DHT22;1861;50.240;8.596;2023-05-16T03:44:33;14.80;99.90
3690;DHT22;1861;50.240;8.596;2023-05-16T03:47:01;15.00;99.90
3690;DHT22;1861;50.240;8.596;2023-05-16T03:49:29;14.90;99.90
3690;DHT22;1861;50.240;8.596;2023-05-16T03:51:57;14.90;99.90
3690;DHT22;1861;50.240;8.596;2023-05-16T03:54:27;14.90;99.90
3690;DHT22;1861;50.240;8.596;2023-05-16T03:56:55;14.90;99.90
3690;DHT22;1861;50.240;8.596;2023-05-16T03:59:23;14.90;99.90
3690;DHT22;1861;50.240;8.596;2023-05-16T04:01:51;14.90;99.90
3690;DHT22;1861;50.240;8.596;2023-05-16T04:04:19;14.90;99.90
3690;DHT22;1861;50.240;8.596;2023-05-16T04:06:48;14.80;99.90
3690;DHT22;1861;50.240;8.596;2023-05-16T04:09:16;14.80;99.90
3690;DHT22;1861;50.240;8.596;2023-05-16T04:11:45;14.70;99.90
3690;DHT22;1861;50.240;8.596;2023-05-16T04:14:14;14.80;99.90
3690;DHT22;1861;50.240;8.596;2023-05-16T04:16:42;14.80;99.90
3690;DHT22;1861;50.240;8.596;2023-05-16T04:19:10;14.90;99.90
3690;DHT22;1861;50.240;8.596;2023-05-16T04:21:39;14.80;99.90
3690;DHT22;1861;50.240;8.596;2023-05-16T04:24:07;14.80;99.90
3690;DHT22;1861;50.240;8.596;2023-05-16T04:26:35;14.80;99.90
3690;DHT22;1861;50.240;8.596;2023-05-16T04:29:05;14.80;99.90
3690;DHT22;1861;50.240;8.596;2023-05-16T04:31:33;14.80;99.90
3690;DHT22;1861;50.240;8.596;2023-05-16T04:34:03;14.90;99.90
3690;DHT22;1861;50.240;8.596;2023-05-16T04:36:31;14.80;99.90
3690;DHT22;1861;50.240;8.596;2023-05-16T04:39:01;14.90;99.90
3690;DHT22;1861;50.240;8.596;2023-05-16T04:41:29;14.80;99.90
3690;DHT22;1861;50.240;8.596;2023-05-16T04:43:57;14.80;99.90
3690;DHT22;1861;50.240;8.596;2023-05-16T04:46:27;14.80;99.90
3690;DHT22;1861;50.240;8.596;2023-05-16T04:48:55;14.80;99.90
3690;DHT22;1861;50.240;8.596;2023-05-16T04:51:24;14.80;99.90
3690;DHT22;1861;50.240;8.596;2023-05-16T04:53:52;14.80;99.90
3690;DHT22;1861;50.240;8.596;2023-05-16T04:56:20;14.80;99.90
3690;DHT22;1861;50.240;8.596;2023-05-16T04:58:49;14.80;99.90
3690;DHT22;1861;50.240;8.596;2023-05-16T05:01:17;14.80;99.90
3690;DHT22;1861;50.240;8.596;2023-05-16T05:03:46;14.90;99.90
3690;DHT22;1861;50.240;8.596;2023-05-16T05:06:14;14.90;99.90
3690;DHT22;1861;50.240;8.596;2023-05-16T05:08:43;14.90;99.90
3690;DHT22;1861;50.240;8.596;2023-05-16T05:11:11;14.90;99.90
3690;DHT22;1861;50.240;8.596;2023-05-16T05:13:39;14.90;99.90
3690;DHT22;1861;50.240;8.596;2023-05-16T05:16:07;14.80;99.90
3690;DHT22;1861;50.240;8.596;2023-05-16T05:18:35;14.90;99.90
3690;DHT22;1861;50.240;8.596;2023-05-16T05:21:05;14.90;99.90
3690;DHT22;1861;50.240;8.596;2023-05-16T05:23:33;14.90;99.90
3690;DHT22;1861;50.240;8.596;2023-05-16T05:26:01;14.80;99.90
3690;DHT22;1861;50.240;8.596;2023-05-16T05:28:29;14.90;99.90
3690;DHT22;1861;50.240;8.596;2023-05-16T05:30:57;14.80;99.90
3690;DHT22;1861;50.240;8.596;2023-05-16T05:33:26;14.80;99.90
3690;DHT22;1861;50.240;8.596;2023-05-16T05:35:55;14.80;99.90
3690;DHT22;1861;50.240;8.596;2023-05-16T05:38:24;14.80;99.90
3690;DHT22;1861;50.240;8.596;2023-05-16T05:40:52;14.80;99.90
3690;DHT22;1861;50.240;8.596;2023-05-16T05:43:21;14.80;99.90
3690;DHT22;1861;50.240;8.596;2023-05-16T05:45:49;14.80;99.90
3690;DHT22;1861;50.240;8.596;2023-05-16T05:48:17;14.80;99.90
3690;DHT22;1861;50.240;8.596;2023-05-16T05:50:45;14.70;99.90
3690;DHT22;1861;50.240;8.596;2023-05-16T05:53:13;14.70;99.90
3690;DHT22;1861;50.240;8.596;2023-05-16T05:55:43;14.70;99.90
3690;DHT22;1861;50.240;8.596;2023-05-16T05:58:11;14.70;99.90
3690;DHT22;1861;50.240;8.596;2023-05-16T06:00:39;14.70;99.90
3690;DHT22;1861;50.240;8.596;2023-05-16T06:03:07;14.70;99.90
3690;DHT22;1861;50.240;8.596;2023-05-16T06:05:35;14.70;99.90
3690;DHT22;1861;50.240;8.596;2023-05-16T06:08:04;14.60;99.90
3690;DHT22;1861;50.240;8.596;2023-05-16T06:10:32;14.60;99.90
3690;DHT22;1861;50.240;8.596;2023-05-16T06:13:01;14.50;99.90
3690;DHT22;1861;50.240;8.596;2023-05-16T06:15:30;14.60;99.90
3690;DHT22;1861;50.240;8.596;2023-05-16T06:17:58;14.50;99.90
3690;DHT22;1861;50.240;8.596;2023-05-16T06:20:26;14.60;99.90
3690;DHT22;1861;50.240;8.596;2023-05-16T06:22:54;14.50;99.90
3690;DHT22;1861;50.240;8.596;2023-05-16T06:25:22;14.50;99.90
3690;DHT22;1861;50.240;8.596;2023-05-16T06:27:51;14.50;99.90
3690;DHT22;1861;50.240;8.596;2023-05-16T06:30:20;14.50;99.90
3690;DHT22;1861;50.240;8.596;2023-05-16T06:32:49;14.50;99.90
3690;DHT22;1861;50.240;8.596;2023-05-16T06:35:17;14.50;99.90
3690;DHT22;1861;50.240;8.596;2023-05-16T06:37:45;14.50;99.90
3690;DHT22;1861;50.240;8.596;2023-05-16T06:40:13;14.60;99.90
3690;DHT22;1861;50.240;8.596;2023-05-16T06:42:41;14.50;99.90
3690;DHT22;1861;50.240;8.596;2023-05-16T06:45:11;14.50;99.90
3690;DHT22;1861;50.240;8.596;2023-05-16T06:47:40;14.50;99.90
3690;DHT22;1861;50.240;8.596;2023-05-16T06:50:09;14.50;99.90
3690;DHT22;1861;50.240;8.596;2023-05-16T06:52:37;14.50;99.90
3690;DHT22;1861;50.240;8.596;2023-05-16T06:55:06;14.60;99.90
3690;DHT22;1861;50.240;8.596;2023-05-16T06:57:34;14.60;99.90
3690;DHT22;1861;50.240;8.596;2023-05-16T07:00:03;14.60;99.90
3690;DHT22;1861;50.240;8.596;2023-05-16T07:02:32;14.60;99.90
3690;DHT22;1861;50.240;8.596;2023-05-16T07:05:02;14.60;99.90
3690;DHT22;1861;50.240;8.596;2023-05-16T07:07:30;14.70;99.90
3690;DHT22;1861;50.240;8.596;2023-05-16T07:09:59;14.60;99.90
3690;DHT22;1861;50.240;8.596;2023-05-16T07:12:27;14.60;99.90
3690;DHT22;1861;50.240;8.596;2023-05-16T07:14:55;14.60;99.90
3690;DHT22;1861;50.240;8.596;2023-05-16T07:17:23;14.60;99.90
3690;DHT22;1861;50.240;8.596;2023-05-16T07:19:52;14.50;99.90
3690;DHT22;1861;50.240;8.596;2023-05-16T07:22:21;14.50;99.90
3690;DHT22;1861;50.240;8.596;2023-05-16T07:24:50;14.50;99.90
3690;DHT22;1861;50.240;8.596;2023-05-16T07:27:20;14.50;99.90
3690;DHT22;1861;50.240;8.596;2023-05-16T07:29:49;14.40;99.90
3690;DHT22;1861;50.240;8.596;2023-05-16T07:32:17;14.50;99.90
3690;DHT22;1861;50.240;8.596;2023-05-16T07:34:46;14.40;99.90
3690;DHT22;1861;50.240;8.596;2023-05-16T07:37:16;14.30;99.90
3690;DHT22;1861;50.240;8.596;2023-05-16T07:39:47;14.20;99.90
3690;DHT22;1861;50.240;8.596;2023-05-16T07:42:15;14.30;99.90
3690;DHT22;1861;50.240;8.596;2023-05-16T07:44:44;14.30;99.90
3690;DHT22;1861;50.240;8.596;2023-05-16T07:47:12;14.30;99.90
3690;DHT22;1861;50.240;8.596;2023-05-16T07:49:40;14.20;99.90
3690;DHT22;1861;50.240;8.596;2023-05-16T07:52:08;14.30;99.90
3690;DHT22;1861;50.240;8.596;2023-05-16T07:54:37;14.20;99.90
3690;DHT22;1861;50.240;8.596;2023-05-16T07:57:06;14.20;99.90
3690;DHT22;1861;50.240;8.596;2023-05-16T07:59:34;14.20;99.90
3690;DHT22;1861;50.240;8.596;2023-05-16T08:02:03;14.10;99.90
3690;DHT22;1861;50.240;8.596;2023-05-16T08:04:31;14.10;99.90
3690;DHT22;1861;50.240;8.596;2023-05-16T08:07:00;14.10;99.90
3690;DHT22;1861;50.240;8.596;2023-05-16T08:09:28;14.10;99.90
3690;DHT22;1861;50.240;8.596;2023-05-16T08:11:57;14.10;99.90
3690;DHT22;1861;50.240;8.596;2023-05-16T08:14:31;14.10;99.90
3690;DHT22;1861;50.240;8.596;2023-05-16T08:16:59;14.10;99.90
3690;DHT22;1861;50.240;8.596;2023-05-16T08:19:30;14.10;99.90
3690;DHT22;1861;50.240;8.596;2023-05-16T08:21:58;14.10;99.90
3690;DHT22;1861;50.240;8.596;2023-05-16T08:24:27;14.10;99.90
3690;DHT22;1861;50.240;8.596;2023-05-16T08:26:55;14.10;99.90
3690;DHT22;1861;50.240;8.596;2023-05-16T08:29:23;14.20;99.90
3690;DHT22;1861;50.240;8.596;2023-05-16T08:31:53;14.10;99.90
3690;DHT22;1861;50.240;8.596;2023-05-16T08:34:21;14.10;99.90
3690;DHT22;1861;50.240;8.596;2023-05-16T08:36:50;14.10;99.90
3690;DHT22;1861;50.240;8.596;2023-05-16T08:39:18;14.20;99.90
3690;DHT22;1861;50.240;8.596;2023-05-16T08:41:46;14.20;99.90
3690;DHT22;1861;50.240;8.596;2023-05-16T08:44:14;14.20;99.90
3690;DHT22;1861;50.240;8.596;2023-05-16T08:46:50;14.30;99.90
3690;DHT22;1861;50.240;8.596;2023-05-16T08:49:20;14.30;99.90
3690;DHT22;1861;50.240;8.596;2023-05-16T08:51:51;14.30;99.90
3690;DHT22;1861;50.240;8.596;2023-05-16T08:54:23;14.20;99.90
3690;DHT22;1861;50.240;8.596;2023-05-16T08:56:55;14.20;99.90
3690;DHT22;1861;50.240;8.596;2023-05-16T08:59:25;14.30;99.90
3690;DHT22;1861;50.240;8.596;2023-05-16T09:01:54;14.30;99.90
3690;DHT22;1861;50.240;8.596;2023-05-16T09:04:24;14.40;99.90
3690;DHT22;1861;50.240;8.596;2023-05-16T09:06:53;14.40;99.90
3690;DHT22;1861;50.240;8.596;2023-05-16T09:09:23;14.40;99.90
3690;DHT22;1861;50.240;8.596;2023-05-16T09:11:51;14.30;99.90
3690;DHT22;1861;50.240;8.596;2023-05-16T09:14:19;14.40;99.90
3690;DHT22;1861;50.240;8.596;2023-05-16T09:17:02;14.40;99.90
3690;DHT22;1861;50.240;8.596;2023-05-16T09:19:39;14.40;99.90
3690;DHT22;1861;50.240;8.596;2023-05-16T09:22:08;14.40;99.90
3690;DHT22;1861;50.240;8.596;2023-05-16T09:24:38;14.40;99.90
3690;DHT22;1861;50.240;8.596;2023-05-16T09:27:07;14.50;99.90
3690;DHT22;1861;50.240;8.596;2023-05-16T09:29:37;14.50;99.90
3690;DHT22;1861;50.240;8.596;2023-05-16T09:32:12;14.50;99.90
3690;DHT22;1861;50.240;8.596;2023-05-16T09:34:44;14.50;99.90
3690;DHT22;1861;50.240;8.596;2023-05-16T09:37:15;14.50;99.90
3690;DHT22;1861;50.240;8.596;2023-05-16T09:39:45;14.50;99.90
3690;DHT22;1861;50.240;8.596;2023-05-16T09:42:15;14.40;99.90
3690;DHT22;1861;50.240;8.596;2023-05-16T09:44:45;14.50;99.90
3690;DHT22;1861;50.240;8.596;2023-05-16T09:47:14;14.50;99.90
3690;DHT22;1861;50.240;8.596;2023-05-16T09:49:45;14.50;99.90
3690;DHT22;1861;50.240;8.596;2023-05-16T09:52:14;14.50;99.90
3690;DHT22;1861;50.240;8.596;2023-05-16T09:54:44;14.50;99.90
3690;DHT22;1861;50.240;8.596;2023-05-16T09:57:17;14.60;99.90
3690;DHT22;1861;50.240;8.596;2023-05-16T09:59:45;14.60;99.90
3690;DHT22;1861;50.240;8.596;2023-05-16T10:02:13;14.60;99.90
3690;DHT22;1861;50.240;8.596;2023-05-16T10:04:43;14.60;99.90
3690;DHT22;1861;50.240;8.596;2023-05-16T10:07:12;14.70;99.90
3690;DHT22;1861;50.240;8.596;2023-05-16T10:09:42;14.70;99.90
3690;DHT22;1861;50.240;8.596;2023-05-16T10:12:12;14.70;99.90
3690;DHT22;1861;50.240;8.596;2023-05-16T10:14:43;14.60;99.90
3690;DHT22;1861;50.240;8.596;2023-05-16T10:17:13;14.70;99.90
3690;DHT22;1861;50.240;8.596;2023-05-16T10:19:44;14.70;99.90
3690;DHT22;1861;50.240;8.596;2023-05-16T10:22:14;14.70;99.90
3690;DHT22;1861;50.240;8.596;2023-05-16T10:24:46;14.60;99.90
3690;DHT22;1861;50.240;8.596;2023-05-16T10:27:15;14.60;99.90
3690;DHT22;1861;50.240;8.596;2023-05-16T10:29:45;14.70;99.90
3690;DHT22;1861;50.240;8.596;2023-05-16T10:32:20;14.70;99.90
3690;DHT22;1861;50.240;8.596;2023-05-16T10:34:52;14.60;99.90
3690;DHT22;1861;50.240;8.596;2023-05-16T10:37:22;14.70;99.90
3690;DHT22;1861;50.240;8.596;2023-05-16T10:39:51;14.60;99.90
3690;DHT22;1861;50.240;8.596;2023-05-16T10:42:20;14.60;99.90
3690;DHT22;1861;50.240;8.596;2023-05-16T10:44:48;14.60;99.90
3690;DHT22;1861;50.240;8.596;2023-05-16T10:47:30;14.60;99.90
3690;DHT22;1861;50.240;8.596;2023-05-16T10:50:00;14.60;99.80
3690;DHT22;1861;50.240;8.596;2023-05-16T10:52:32;14.70;99.40
3690;DHT22;1861;50.240;8.596;2023-05-16T10:55:02;14.70;99.10
3690;DHT22;1861;50.240;8.596;2023-05-16T10:57:32;14.70;98.70
3690;DHT22;1861;50.240;8.596;2023-05-16T11:00:06;14.70;98.90
3690;DHT22;1861;50.240;8.596;2023-05-16T11:02:40;14.70;98.80
3690;DHT22;1861;50.240;8.596;2023-05-16T11:05:16;14.70;98.70
3690;DHT22;1861;50.240;8.596;2023-05-16T11:08:01;14.70;98.80
3690;DHT22;1861;50.240;8.596;2023-05-16T11:10:31;14.80;98.30
3690;DHT22;1861;50.240;8.596;2023-05-16T11:13:05;14.70;98.10
3690;DHT22;1861;50.240;8.596;2023-05-16T11:15:34;14.80;98.30
3690;DHT22;1861;50.240;8.596;2023-05-16T11:18:06;14.80;98.20
3690;DHT22;1861;50.240;8.596;2023-05-16T11:20:38;14.80;97.90
3690;DHT22;1861;50.240;8.596;2023-05-16T11:23:23;14.90;98.30
3690;DHT22;1861;50.240;8.596;2023-05-16T11:25:54;14.90;98.20
3690;DHT22;1861;50.240;8.596;2023-05-16T11:28:24;15.00;98.50
3690;DHT22;1861;50.240;8.596;2023-05-16T11:30:54;15.00;98.00
3690;DHT22;1861;50.240;8.596;2023-05-16T11:33:24;15.10;98.10
3690;DHT22;1861;50.240;8.596;2023-05-16T11:36:02;15.10;98.30
3690;DHT22;1861;50.240;8.596;2023-05-16T11:38:42;15.20;97.90
3690;DHT22;1861;50.240;8.596;2023-05-16T11:41:10;15.20;97.70
3690;DHT22;1861;50.240;8.596;2023-05-16T11:43:43;15.30;97.50
3690;DHT22;1861;50.240;8.596;2023-05-16T11:46:11;15.30;96.70
3690;DHT22;1861;50.240;8.596;2023-05-16T11:48:40;15.40;96.70
3690;DHT22;1861;50.240;8.596;2023-05-16T11:51:10;15.60;96.90
3690;DHT22;1861;50.240;8.596;2023-05-16T11:53:40;15.90;96.90
3690;DHT22;1861;50.240;8.596;2023-05-16T11:56:08;16.10;96.80
3690;DHT22;1861;50.240;8.596;2023-05-16T11:58:37;16.20;96.90
3690;DHT22;1861;50.240;8.596;2023-05-16T12:01:05;16.20;96.50
3690;DHT22;1861;50.240;8.596;2023-05-16T12:03:34;16.10;96.50
3690;DHT22;1861;50.240;8.596;2023-05-16T12:06:03;16.00;96.60
3690;DHT22;1861;50.240;8.596;2023-05-16T12:08:33;16.00;96.60
3690;DHT22;1861;50.240;8.596;2023-05-16T12:11:01;16.20;96.60
3690;DHT22;1861;50.240;8.596;2023-05-16T12:13:30;16.10;96.60
3690;DHT22;1861;50.240;8.596;2023-05-16T12:15:58;16.00;96.30
3690;DHT22;1861;50.240;8.596;2023-05-16T12:18:26;16.00;96.10
3690;DHT22;1861;50.240;8.596;2023-05-16T12:20:54;16.10;96.30
3690;DHT22;1861;50.240;8.596;2023-05-16T12:23:25;16.20;96.10
3690;DHT22;1861;50.240;8.596;2023-05-16T12:25:56;16.20;95.90
3690;DHT22;1861;50.240;8.596;2023-05-16T12:28:31;16.40;95.90
3690;DHT22;1861;50.240;8.596;2023-05-16T12:31:00;16.50;95.90
3690;DHT22;1861;50.240;8.596;2023-05-16T12:33:28;16.50;95.70
3690;DHT22;1861;50.240;8.596;2023-05-16T12:35:57;16.70;95.60
3690;DHT22;1861;50.240;8.596;2023-05-16T12:38:27;16.80;95.40
3690;DHT22;1861;50.240;8.596;2023-05-16T12:40:58;16.80;95.50
3690;DHT22;1861;50.240;8.596;2023-05-16T12:43:26;17.00;95.60
3690;DHT22;1861;50.240;8.596;2023-05-16T12:45:55;16.90;95.40
3690;DHT22;1861;50.240;8.596;2023-05-16T12:48:32;17.00;95.50
3690;DHT22;1861;50.240;8.596;2023-05-16T12:51:11;17.00;95.10
3690;DHT22;1861;50.240;8.596;2023-05-16T12:53:41;17.00;95.40
3690;DHT22;1861;50.240;8.596;2023-05-16T12:56:21;17.00;95.20
3690;DHT22;1861;50.240;8.596;2023-05-16T12:58:50;16.90;95.80
3690;DHT22;1861;50.240;8.596;2023-05-16T13:01:18;16.90;95.40
3690;DHT22;1861;50.240;8.596;2023-05-16T13:03:46;16.80;95.00
3690;DHT22;1861;50.240;8.596;2023-05-16T13:06:14;16.70;94.50
3690;DHT22;1861;50.240;8.596;2023-05-16T13:08:43;16.80;94.90
3690;DHT22;1861;50.240;8.596;2023-05-16T13:11:12;16.80;95.00
3690;DHT22;1861;50.240;8.596;2023-05-16T13:13:41;16.70;94.70
3690;DHT22;1861;50.240;8.596;2023-05-16T13:16:09;16.80;94.90
3690;DHT22;1861;50.240;8.596;2023-05-16T13:18:38;16.80;94.80
3690;DHT22;1861;50.240;8.596;2023-05-16T13:21:09;16.80;94.90
3690;DHT22;1861;50.240;8.596;2023-05-16T13:23:37;16.80;94.90
3690;DHT22;1861;50.240;8.596;2023-05-16T13:26:05;16.80;94.60
3690;DHT22;1861;50.240;8.596;2023-05-16T13:28:33;16.70;94.50
3690;DHT22;1861;50.240;8.596;2023-05-16T13:31:03;16.80;94.70
3690;DHT22;1861;50.240;8.596;2023-05-16T13:33:31;16.70;95.00
3690;DHT22;1861;50.240;8.596;2023-05-16T13:36:02;16.70;95.00
3690;DHT22;1861;50.240;8.596;2023-05-16T13:38:30;16.80;94.90
3690;DHT22;1861;50.240;8.596;2023-05-16T13:40:58;16.80;94.80
3690;DHT22;1861;50.240;8.596;2023-05-16T13:43:26;16.80;94.70
3690;DHT22;1861;50.240;8.596;2023-05-16T13:45:55;16.70;94.20
3690;DHT22;1861;50.240;8.596;2023-05-16T13:48:24;16.60;94.00
3690;DHT22;1861;50.240;8.596;2023-05-16T13:50:53;16.50;93.90
3690;DHT22;1861;50.240;8.596;2023-05-16T13:53:21;16.50;93.20
3690;DHT22;1861;50.240;8.596;2023-05-16T13:55:50;16.40;93.00
3690;DHT22;1861;50.240;8.596;2023-05-16T13:58:18;16.40;93.00
3690;DHT22;1861;50.240;8.596;2023-05-16T14:00:47;16.40;92.80
3690;DHT22;1861;50.240;8.596;2023-05-16T14:03:15;16.40;92.40
3690;DHT22;1861;50.240;8.596;2023-05-16T14:05:45;16.30;91.80
3690;DHT22;1861;50.240;8.596;2023-05-16T14:08:15;16.30;92.30
3690;DHT22;1861;50.240;8.596;2023-05-16T14:10:43;16.30;91.90
3690;DHT22;1861;50.240;8.596;2023-05-16T14:13:11;16.30;91.60
3690;DHT22;1861;50.240;8.596;2023-05-16T14:15:40;16.30;91.80
3690;DHT22;1861;50.240;8.596;2023-05-16T14:18:08;16.30;91.80
3690;DHT22;1861;50.240;8.596;2023-05-16T14:20:36;16.30;92.00
3690;DHT22;1861;50.240;8.596;2023-05-16T14:23:05;16.30;92.20
3690;DHT22;1861;50.240;8.596;2023-05-16T14:25:34;16.40;92.10
3690;DHT22;1861;50.240;8.596;2023-05-16T14:28:02;16.40;92.40
3690;DHT22;1861;50.240;8.596;2023-05-16T14:30:30;16.40;92.00
3690;DHT22;1861;50.240;8.596;2023-05-16T14:32:58;16.40;91.80
3690;DHT22;1861;50.240;8.596;2023-05-16T14:35:27;16.30;91.60
3690;DHT22;1861;50.240;8.596;2023-05-16T14:37:56;16.30;91.80
3690;DHT22;1861;50.240;8.596;2023-05-16T14:40:25;16.30;91.90
3690;DHT22;1861;50.240;8.596;2023-05-16T14:42:53;16.30;91.90
3690;DHT22;1861;50.240;8.596;2023-05-16T14:45:21;16.40;91.90
3690;DHT22;1861;50.240;8.596;2023-05-16T14:47:50;16.30;91.90
3690;DHT22;1861;50.240;8.596;2023-05-16T14:50:18;16.30;91.70
3690;DHT22;1861;50.240;8.596;2023-05-16T14:52:47;16.30;91.50
3690;DHT22;1861;50.240;8.596;2023-05-16T14:55:15;16.30;90.70
3690;DHT22;1861;50.240;8.596;2023-05-16T14:57:45;16.30;90.80
3690;DHT22;1861;50.240;8.596;2023-05-16T15:00:22;16.20;90.70
3690;DHT22;1861;50.240;8.596;2023-05-16T15:02:52;16.20;90.60
3690;DHT22;1861;50.240;8.596;2023-05-16T15:05:20;16.20;90.70
3690;DHT22;1861;50.240;8.596;2023-05-16T15:07:51;16.20;90.60
3690;DHT22;1861;50.240;8.596;2023-05-16T15:10:19;16.30;90.70
3690;DHT22;1861;50.240;8.596;2023-05-16T15:12:49;16.30;90.90
3690;DHT22;1861;50.240;8.596;2023-05-16T15:15:17;16.30;90.90
3690;DHT22;1861;50.240;8.596;2023-05-16T15:17:45;16.30;90.70
3690;DHT22;1861;50.240;8.596;2023-05-16T15:20:13;16.40;91.00
3690;DHT22;1861;50.240;8.596;2023-05-16T15:22:42;16.40;90.50
3690;DHT22;1861;50.240;8.596;2023-05-16T15:25:10;16.40;90.90
3690;DHT22;1861;50.240;8.596;2023-05-16T15:27:38;16.40;90.80
3690;DHT22;1861;50.240;8.596;2023-05-16T15:30:09;16.40;90.40
3690;DHT22;1861;50.240;8.596;2023-05-16T15:32:38;16.40;90.30
3690;DHT22;1861;50.240;8.596;2023-05-16T15:35:07;16.40;90.40
3690;DHT22;1861;50.240;8.596;2023-05-16T15:37:35;16.40;90.50
3690;DHT22;1861;50.240;8.596;2023-05-16T15:40:04;16.30;89.90
3690;DHT22;1861;50.240;8.596;2023-05-16T15:42:34;16.40;89.40
3690;DHT22;1861;50.240;8.596;2023-05-16T15:45:02;16.40;89.30
3690;DHT22;1861;50.240;8.596;2023-05-16T15:47:32;16.30;89.00
3690;DHT22;1861;50.240;8.596;2023-05-16T15:50:00;16.30;88.60
3690;DHT22;1861;50.240;8.596;2023-05-16T15:52:28;16.30;88.90
3690;DHT22;1861;50.240;8.596;2023-05-16T15:54:58;16.30;87.30
3690;DHT22;1861;50.240;8.596;2023-05-16T15:57:27;16.30;88.20
3690;DHT22;1861;50.240;8.596;2023-05-16T15:59:55;16.30;88.00
3690;DHT22;1861;50.240;8.596;2023-05-16T16:02:23;16.30;88.10
3690;DHT22;1861;50.240;8.596;2023-05-16T16:04:53;16.30;87.80
3690;DHT22;1861;50.240;8.596;2023-05-16T16:07:22;16.30;87.10
3690;DHT22;1861;50.240;8.596;2023-05-16T16:09:50;16.30;88.10
3690;DHT22;1861;50.240;8.596;2023-05-16T16:12:18;16.30;88.40
3690;DHT22;1861;50.240;8.596;2023-05-16T16:14:47;16.30;87.40
3690;DHT22;1861;50.240;8.596;2023-05-16T16:17:16;16.30;88.10